sensor_id;sensor_type;location;lat;lon;timestamp;P1;durP1;ratioP1;P2;durP2;ratioP2
19754;SDS011;10036;47.812;9.274;2023-03-31T00:01:04;6.85;;;3.85;;
19754;SDS011;10036;47.812;9.274;2023-03-31T00:03:31;5.57;;;3.90;;
19754;SDS011;10036;47.812;9.274;2023-03-31T00:06:02;11.90;;;3.85;;
19754;SDS011;10036;47.812;9.274;2023-03-31T00:08:30;6.78;;;4.10;;
19754;SDS011;10036;47.812;9.274;2023-03-31T00:11:02;7.60;;;3.90;;
19754;SDS011;10036;47.812;9.274;2023-03-31T00:13:31;7.70;;;4.25;;
19754;SDS011;10036;47.812;9.274;2023-03-31T00:15:59;4.60;;;4.00;;
19754;SDS011;10036;47.812;9.274;2023-03-31T00:18:28;6.68;;;3.75;;
19754;SDS011;10036;47.812;9.274;2023-03-31T00:20:58;7.03;;;3.85;;
19754;SDS011;10036;47.812;9.274;2023-03-31T00:23:31;9.18;;;4.55;;
19754;SDS011;10036;47.812;9.274;2023-03-31T00:25:58;8.60;;;4.57;;
19754;SDS011;10036;47.812;9.274;2023-03-31T00:28:26;7.72;;;4.10;;
19754;SDS011;10036;47.812;9.274;2023-03-31T00:30:53;9.82;;;4.70;;
19754;SDS011;10036;47.812;9.274;2023-03-31T00:33:26;5.95;;;4.13;;
19754;SDS011;10036;47.812;9.274;2023-03-31T00:35:53;6.72;;;4.10;;
19754;SDS011;10036;47.812;9.274;2023-03-31T00:38:26;5.35;;;4.10;;
19754;SDS011;10036;47.812;9.274;2023-03-31T00:40:54;9.55;;;4.47;;
19754;SDS011;10036;47.812;9.274;2023-03-31T00:43:27;5.45;;;3.67;;
19754;SDS011;10036;47.812;9.274;2023-03-31T00:46:04;9.65;;;4.60;;
19754;SDS011;10036;47.812;9.274;2023-03-31T00:48:39;5.90;;;4.22;;
19754;SDS011;10036;47.812;9.274;2023-03-31T00:51:11;10.95;;;4.75;;
19754;SDS011;10036;47.812;9.274;2023-03-31T00:53:38;7.80;;;4.30;;
19754;SDS011;10036;47.812;9.274;2023-03-31T00:56:07;9.85;;;4.90;;
19754;SDS011;10036;47.812;9.274;2023-03-31T00:58:39;9.75;;;4.32;;
19754;SDS011;10036;47.812;9.274;2023-03-31T01:01:10;9.55;;;4.43;;
19754;SDS011;10036;47.812;9.274;2023-03-31T01:03:40;10.07;;;4.57;;
19754;SDS011;10036;47.812;9.274;2023-03-31T01:06:11;11.90;;;4.50;;
19754;SDS011;10036;47.812;9.274;2023-03-31T01:08:41;7.60;;;4.03;;
19754;SDS011;10036;47.812;9.274;2023-03-31T01:11:10;7.80;;;4.03;;
19754;SDS011;10036;47.812;9.274;2023-03-31T01:13:42;8.13;;;4.60;;
19754;SDS011;10036;47.812;9.274;2023-03-31T01:16:14;7.97;;;4.47;;
19754;SDS011;10036;47.812;9.274;2023-03-31T01:18:41;5.25;;;4.03;;
19754;SDS011;10036;47.812;9.274;2023-03-31T01:21:20;6.75;;;4.25;;
19754;SDS011;10036;47.812;9.274;2023-03-31T01:24:06;11.32;;;4.72;;
19754;SDS011;10036;47.812;9.274;2023-03-31T01:27:10;9.07;;;5.13;;
19754;SDS011;10036;47.812;9.274;2023-03-31T01:30:14;6.38;;;4.53;;
19754;SDS011;10036;47.812;9.274;2023-03-31T01:36:29;12.38;;;4.80;;
19754;SDS011;10036;47.812;9.274;2023-03-31T01:39:22;7.72;;;4.30;;
19754;SDS011;10036;47.812;9.274;2023-03-31T01:42:06;9.30;;;5.40;;
19754;SDS011;10036;47.812;9.274;2023-03-31T01:44:39;12.63;;;5.50;;
19754;SDS011;10036;47.812;9.274;2023-03-31T01:47:12;12.85;;;5.55;;
19754;SDS011;10036;47.812;9.274;2023-03-31T01:49:49;9.57;;;6.00;;
19754;SDS011;10036;47.812;9.274;2023-03-31T01:52:24;10.52;;;5.93;;
19754;SDS011;10036;47.812;9.274;2023-03-31T01:55:00;11.90;;;6.15;;
19754;SDS011;10036;47.812;9.274;2023-03-31T01:57:32;10.48;;;6.43;;
19754;SDS011;10036;47.812;9.274;2023-03-31T02:00:02;9.18;;;6.13;;
19754;SDS011;10036;47.812;9.274;2023-03-31T02:02:34;12.85;;;6.07;;
19754;SDS011;10036;47.812;9.274;2023-03-31T02:05:05;10.50;;;6.13;;
19754;SDS011;10036;47.812;9.274;2023-03-31T02:07:36;10.30;;;6.05;;
19754;SDS011;10036;47.812;9.274;2023-03-31T02:10:09;12.75;;;5.53;;
19754;SDS011;10036;47.812;9.274;2023-03-31T02:12:38;9.52;;;5.85;;
19754;SDS011;10036;47.812;9.274;2023-03-31T02:15:09;8.52;;;5.45;;
19754;SDS011;10036;47.812;9.274;2023-03-31T02:17:39;9.27;;;5.82;;
19754;SDS011;10036;47.812;9.274;2023-03-31T02:20:10;11.13;;;6.28;;
19754;SDS011;10036;47.812;9.274;2023-03-31T02:22:42;11.20;;;5.80;;
19754;SDS011;10036;47.812;9.274;2023-03-31T02:25:16;10.95;;;5.95;;
19754;SDS011;10036;47.812;9.274;2023-03-31T02:27:47;10.43;;;6.30;;
19754;SDS011;10036;47.812;9.274;2023-03-31T02:30:19;12.48;;;6.03;;
19754;SDS011;10036;47.812;9.274;2023-03-31T02:32:46;10.60;;;5.70;;
19754;SDS011;10036;47.812;9.274;2023-03-31T02:35:13;10.63;;;5.55;;
19754;SDS011;10036;47.812;9.274;2023-03-31T02:37:42;10.80;;;5.50;;
19754;SDS011;10036;47.812;9.274;2023-03-31T02:40:11;9.63;;;5.38;;
19754;SDS011;10036;47.812;9.274;2023-03-31T02:42:43;9.80;;;5.35;;
19754;SDS011;10036;47.812;9.274;2023-03-31T02:48:13;9.20;;;5.63;;
19754;SDS011;10036;47.812;9.274;2023-03-31T02:50:47;8.55;;;5.05;;
19754;SDS011;10036;47.812;9.274;2023-03-31T02:53:35;7.97;;;4.90;;
19754;SDS011;10036;47.812;9.274;2023-03-31T02:56:21;8.98;;;4.95;;
19754;SDS011;10036;47.812;9.274;2023-03-31T02:59:03;6.88;;;4.70;;
19754;SDS011;10036;47.812;9.274;2023-03-31T03:01:49;12.30;;;4.60;;
19754;SDS011;10036;47.812;9.274;2023-03-31T03:04:32;8.30;;;5.13;;
19754;SDS011;10036;47.812;9.274;2023-03-31T03:07:11;8.27;;;5.10;;
19754;SDS011;10036;47.812;9.274;2023-03-31T03:09:48;9.60;;;5.63;;
19754;SDS011;10036;47.812;9.274;2023-03-31T03:12:26;9.07;;;6.13;;
19754;SDS011;10036;47.812;9.274;2023-03-31T03:14:59;9.90;;;5.68;;
19754;SDS011;10036;47.812;9.274;2023-03-31T03:17:31;10.13;;;5.75;;
19754;SDS011;10036;47.812;9.274;2023-03-31T03:20:03;10.70;;;5.93;;
19754;SDS011;10036;47.812;9.274;2023-03-31T03:22:33;10.48;;;5.68;;
19754;SDS011;10036;47.812;9.274;2023-03-31T03:25:01;8.82;;;5.57;;
19754;SDS011;10036;47.812;9.274;2023-03-31T03:27:29;9.48;;;4.90;;
19754;SDS011;10036;47.812;9.274;2023-03-31T03:29:56;9.80;;;5.93;;
19754;SDS011;10036;47.812;9.274;2023-03-31T03:32:23;8.82;;;5.07;;
19754;SDS011;10036;47.812;9.274;2023-03-31T03:34:50;9.85;;;5.63;;
19754;SDS011;10036;47.812;9.274;2023-03-31T03:37:18;7.57;;;4.75;;
19754;SDS011;10036;47.812;9.274;2023-03-31T03:39:45;13.15;;;5.63;;
19754;SDS011;10036;47.812;9.274;2023-03-31T03:42:12;11.95;;;5.10;;
19754;SDS011;10036;47.812;9.274;2023-03-31T03:44:40;8.15;;;5.35;;
19754;SDS011;10036;47.812;9.274;2023-03-31T03:47:07;11.30;;;5.57;;
19754;SDS011;10036;47.812;9.274;2023-03-31T03:49:34;13.25;;;6.80;;
19754;SDS011;10036;47.812;9.274;2023-03-31T03:52:01;8.40;;;6.20;;
19754;SDS011;10036;47.812;9.274;2023-03-31T03:54:27;11.57;;;6.45;;
19754;SDS011;10036;47.812;9.274;2023-03-31T03:56:54;11.52;;;6.05;;
19754;SDS011;10036;47.812;9.274;2023-03-31T03:59:21;12.85;;;5.85;;
19754;SDS011;10036;47.812;9.274;2023-03-31T04:01:49;9.27;;;5.95;;
19754;SDS011;10036;47.812;9.274;2023-03-31T04:04:16;13.48;;;6.18;;
19754;SDS011;10036;47.812;9.274;2023-03-31T04:06:44;13.07;;;5.53;;
19754;SDS011;10036;47.812;9.274;2023-03-31T04:09:11;10.38;;;5.80;;
19754;SDS011;10036;47.812;9.274;2023-03-31T04:11:38;8.38;;;5.50;;
19754;SDS011;10036;47.812;9.274;2023-03-31T04:14:04;10.68;;;5.90;;
19754;SDS011;10036;47.812;9.274;2023-03-31T04:16:31;12.43;;;5.95;;
19754;SDS011;10036;47.812;9.274;2023-03-31T04:18:59;10.25;;;5.22;;
19754;SDS011;10036;47.812;9.274;2023-03-31T04:21:28;13.07;;;6.40;;
19754;SDS011;10036;47.812;9.274;2023-03-31T04:23:59;12.30;;;7.10;;
19754;SDS011;10036;47.812;9.274;2023-03-31T04:26:29;10.18;;;6.10;;
19754;SDS011;10036;47.812;9.274;2023-03-31T04:29:03;12.52;;;6.70;;
19754;SDS011;10036;47.812;9.274;2023-03-31T04:31:31;10.95;;;6.13;;
19754;SDS011;10036;47.812;9.274;2023-03-31T04:34:04;12.50;;;6.32;;
19754;SDS011;10036;47.812;9.274;2023-03-31T04:36:37;18.23;;;7.28;;
19754;SDS011;10036;47.812;9.274;2023-03-31T04:39:06;17.60;;;7.70;;
19754;SDS011;10036;47.812;9.274;2023-03-31T04:41:34;21.80;;;8.23;;
19754;SDS011;10036;47.812;9.274;2023-03-31T04:44:03;16.20;;;7.25;;
19754;SDS011;10036;47.812;9.274;2023-03-31T04:46:30;15.45;;;7.10;;
19754;SDS011;10036;47.812;9.274;2023-03-31T04:48:57;13.27;;;7.30;;
19754;SDS011;10036;47.812;9.274;2023-03-31T04:51:26;11.88;;;7.07;;
19754;SDS011;10036;47.812;9.274;2023-03-31T04:53:53;10.60;;;6.38;;
19754;SDS011;10036;47.812;9.274;2023-03-31T04:56:20;13.30;;;6.28;;
19754;SDS011;10036;47.812;9.274;2023-03-31T04:58:47;11.32;;;6.28;;
19754;SDS011;10036;47.812;9.274;2023-03-31T05:01:14;11.95;;;7.45;;
19754;SDS011;10036;47.812;9.274;2023-03-31T05:03:42;11.13;;;7.05;;
19754;SDS011;10036;47.812;9.274;2023-03-31T05:06:09;14.02;;;8.60;;
19754;SDS011;10036;47.812;9.274;2023-03-31T05:08:37;15.43;;;9.07;;
19754;SDS011;10036;47.812;9.274;2023-03-31T05:11:04;20.80;;;10.82;;
19754;SDS011;10036;47.812;9.274;2023-03-31T05:13:31;22.80;;;12.75;;
19754;SDS011;10036;47.812;9.274;2023-03-31T05:16:04;23.98;;;12.15;;
19754;SDS011;10036;47.812;9.274;2023-03-31T05:18:32;28.33;;;13.10;;
19754;SDS011;10036;47.812;9.274;2023-03-31T05:21:06;15.52;;;10.45;;
19754;SDS011;10036;47.812;9.274;2023-03-31T05:23:34;15.77;;;8.90;;
19754;SDS011;10036;47.812;9.274;2023-03-31T05:26:02;20.20;;;10.20;;
19754;SDS011;10036;47.812;9.274;2023-03-31T05:28:30;23.00;;;9.27;;
19754;SDS011;10036;47.812;9.274;2023-03-31T05:30:57;12.20;;;7.40;;
19754;SDS011;10036;47.812;9.274;2023-03-31T05:33:25;15.15;;;8.57;;
19754;SDS011;10036;47.812;9.274;2023-03-31T05:35:52;12.73;;;7.70;;
19754;SDS011;10036;47.812;9.274;2023-03-31T05:38:19;13.80;;;7.57;;
19754;SDS011;10036;47.812;9.274;2023-03-31T05:40:46;12.95;;;7.45;;
19754;SDS011;10036;47.812;9.274;2023-03-31T05:43:14;13.60;;;7.55;;
19754;SDS011;10036;47.812;9.274;2023-03-31T05:45:41;15.73;;;7.55;;
19754;SDS011;10036;47.812;9.274;2023-03-31T05:48:08;14.05;;;7.05;;
19754;SDS011;10036;47.812;9.274;2023-03-31T05:50:35;14.18;;;7.50;;
19754;SDS011;10036;47.812;9.274;2023-03-31T05:53:02;14.30;;;6.68;;
19754;SDS011;10036;47.812;9.274;2023-03-31T05:55:29;12.40;;;7.13;;
19754;SDS011;10036;47.812;9.274;2023-03-31T05:57:56;16.38;;;7.18;;
19754;SDS011;10036;47.812;9.274;2023-03-31T06:00:24;15.77;;;6.90;;
19754;SDS011;10036;47.812;9.274;2023-03-31T06:02:51;12.23;;;6.72;;
19754;SDS011;10036;47.812;9.274;2023-03-31T06:05:18;17.55;;;7.82;;
19754;SDS011;10036;47.812;9.274;2023-03-31T06:07:44;14.27;;;7.00;;
19754;SDS011;10036;47.812;9.274;2023-03-31T06:10:11;12.07;;;6.70;;
19754;SDS011;10036;47.812;9.274;2023-03-31T06:12:38;12.55;;;6.68;;
19754;SDS011;10036;47.812;9.274;2023-03-31T06:15:05;11.73;;;6.72;;
19754;SDS011;10036;47.812;9.274;2023-03-31T06:17:34;15.10;;;7.38;;
19754;SDS011;10036;47.812;9.274;2023-03-31T06:20:01;12.85;;;7.30;;
19754;SDS011;10036;47.812;9.274;2023-03-31T06:22:29;15.45;;;7.35;;
19754;SDS011;10036;47.812;9.274;2023-03-31T06:24:56;12.88;;;7.03;;
19754;SDS011;10036;47.812;9.274;2023-03-31T06:27:23;10.65;;;7.20;;
19754;SDS011;10036;47.812;9.274;2023-03-31T06:29:50;16.73;;;8.35;;
19754;SDS011;10036;47.812;9.274;2023-03-31T06:32:17;13.98;;;7.70;;
19754;SDS011;10036;47.812;9.274;2023-03-31T06:34:45;14.50;;;7.95;;
19754;SDS011;10036;47.812;9.274;2023-03-31T06:37:12;13.80;;;7.85;;
19754;SDS011;10036;47.812;9.274;2023-03-31T06:39:39;12.52;;;7.03;;
19754;SDS011;10036;47.812;9.274;2023-03-31T06:42:06;10.90;;;6.63;;
19754;SDS011;10036;47.812;9.274;2023-03-31T06:44:33;11.50;;;8.13;;
19754;SDS011;10036;47.812;9.274;2023-03-31T06:46:59;11.80;;;8.15;;
19754;SDS011;10036;47.812;9.274;2023-03-31T06:49:26;13.07;;;8.18;;
19754;SDS011;10036;47.812;9.274;2023-03-31T06:51:54;15.32;;;7.78;;
19754;SDS011;10036;47.812;9.274;2023-03-31T06:54:21;12.18;;;8.05;;
19754;SDS011;10036;47.812;9.274;2023-03-31T06:56:48;15.55;;;7.10;;
19754;SDS011;10036;47.812;9.274;2023-03-31T06:59:15;10.23;;;7.07;;
19754;SDS011;10036;47.812;9.274;2023-03-31T07:01:42;15.95;;;6.50;;
19754;SDS011;10036;47.812;9.274;2023-03-31T07:04:10;13.13;;;6.82;;
19754;SDS011;10036;47.812;9.274;2023-03-31T07:06:36;12.15;;;7.13;;
19754;SDS011;10036;47.812;9.274;2023-03-31T07:09:05;11.60;;;7.13;;
19754;SDS011;10036;47.812;9.274;2023-03-31T07:11:32;12.55;;;7.13;;
19754;SDS011;10036;47.812;9.274;2023-03-31T07:13:59;12.70;;;6.75;;
19754;SDS011;10036;47.812;9.274;2023-03-31T07:16:26;9.60;;;6.13;;
19754;SDS011;10036;47.812;9.274;2023-03-31T07:18:53;7.78;;;5.03;;
19754;SDS011;10036;47.812;9.274;2023-03-31T07:21:23;8.85;;;5.70;;
19754;SDS011;10036;47.812;9.274;2023-03-31T07:23:50;8.52;;;4.93;;
19754;SDS011;10036;47.812;9.274;2023-03-31T07:26:19;7.88;;;5.05;;
19754;SDS011;10036;47.812;9.274;2023-03-31T07:28:46;10.18;;;5.57;;
19754;SDS011;10036;47.812;9.274;2023-03-31T07:31:13;10.20;;;5.40;;
19754;SDS011;10036;47.812;9.274;2023-03-31T07:33:40;10.70;;;5.47;;
19754;SDS011;10036;47.812;9.274;2023-03-31T07:36:07;6.35;;;4.80;;
19754;SDS011;10036;47.812;9.274;2023-03-31T07:38:34;8.85;;;4.65;;
19754;SDS011;10036;47.812;9.274;2023-03-31T07:41:01;9.23;;;4.30;;
19754;SDS011;10036;47.812;9.274;2023-03-31T07:43:29;7.00;;;4.03;;
19754;SDS011;10036;47.812;9.274;2023-03-31T07:45:56;6.57;;;4.47;;
19754;SDS011;10036;47.812;9.274;2023-03-31T07:48:23;5.43;;;4.20;;
19754;SDS011;10036;47.812;9.274;2023-03-31T07:50:52;10.25;;;4.78;;
19754;SDS011;10036;47.812;9.274;2023-03-31T07:53:20;10.25;;;5.20;;
19754;SDS011;10036;47.812;9.274;2023-03-31T07:55:47;8.52;;;4.65;;
19754;SDS011;10036;47.812;9.274;2023-03-31T07:58:14;8.57;;;5.30;;
19754;SDS011;10036;47.812;9.274;2023-03-31T08:00:42;9.43;;;5.03;;
19754;SDS011;10036;47.812;9.274;2023-03-31T08:03:09;16.35;;;11.25;;
19754;SDS011;10036;47.812;9.274;2023-03-31T08:05:35;9.93;;;6.47;;
19754;SDS011;10036;47.812;9.274;2023-03-31T08:08:02;5.63;;;3.78;;
19754;SDS011;10036;47.812;9.274;2023-03-31T08:10:29;4.65;;;3.78;;
19754;SDS011;10036;47.812;9.274;2023-03-31T08:12:56;6.60;;;3.70;;
19754;SDS011;10036;47.812;9.274;2023-03-31T08:15:23;8.10;;;3.60;;
19754;SDS011;10036;47.812;9.274;2023-03-31T08:17:51;6.50;;;3.63;;
19754;SDS011;10036;47.812;9.274;2023-03-31T08:20:18;4.82;;;3.38;;
19754;SDS011;10036;47.812;9.274;2023-03-31T08:22:45;4.82;;;3.38;;
19754;SDS011;10036;47.812;9.274;2023-03-31T08:25:12;8.40;;;3.47;;
19754;SDS011;10036;47.812;9.274;2023-03-31T08:27:39;5.25;;;3.28;;
19754;SDS011;10036;47.812;9.274;2023-03-31T08:30:07;6.30;;;3.40;;
19754;SDS011;10036;47.812;9.274;2023-03-31T08:32:35;8.38;;;3.67;;
19754;SDS011;10036;47.812;9.274;2023-03-31T08:35:04;8.90;;;3.40;;
19754;SDS011;10036;47.812;9.274;2023-03-31T08:37:32;5.55;;;3.25;;
19754;SDS011;10036;47.812;9.274;2023-03-31T08:39:59;6.50;;;3.25;;
19754;SDS011;10036;47.812;9.274;2023-03-31T08:42:31;4.85;;;2.38;;
19754;SDS011;10036;47.812;9.274;2023-03-31T08:45:04;7.32;;;3.25;;
19754;SDS011;10036;47.812;9.274;2023-03-31T08:47:36;4.88;;;2.88;;
19754;SDS011;10036;47.812;9.274;2023-03-31T08:50:06;5.32;;;3.05;;
19754;SDS011;10036;47.812;9.274;2023-03-31T08:52:38;9.95;;;4.13;;
19754;SDS011;10036;47.812;9.274;2023-03-31T08:55:10;7.40;;;3.72;;
19754;SDS011;10036;47.812;9.274;2023-03-31T08:57:46;5.93;;;2.60;;
19754;SDS011;10036;47.812;9.274;2023-03-31T09:00:21;3.83;;;2.40;;
19754;SDS011;10036;47.812;9.274;2023-03-31T09:02:50;4.32;;;2.30;;
19754;SDS011;10036;47.812;9.274;2023-03-31T09:08:12;3.20;;;2.20;;
19754;SDS011;10036;47.812;9.274;2023-03-31T09:10:47;4.45;;;2.55;;
19754;SDS011;10036;47.812;9.274;2023-03-31T09:13:33;4.10;;;2.30;;
19754;SDS011;10036;47.812;9.274;2023-03-31T09:16:36;5.28;;;2.30;;
19754;SDS011;10036;47.812;9.274;2023-03-31T09:19:10;3.47;;;2.20;;
19754;SDS011;10036;47.812;9.274;2023-03-31T09:21:43;3.20;;;2.10;;
19754;SDS011;10036;47.812;9.274;2023-03-31T09:24:15;3.90;;;2.28;;
19754;SDS011;10036;47.812;9.274;2023-03-31T09:26:45;2.53;;;2.30;;
19754;SDS011;10036;47.812;9.274;2023-03-31T09:29:18;4.72;;;2.05;;
19754;SDS011;10036;47.812;9.274;2023-03-31T09:31:48;6.07;;;2.40;;
19754;SDS011;10036;47.812;9.274;2023-03-31T09:34:18;4.13;;;2.35;;
19754;SDS011;10036;47.812;9.274;2023-03-31T09:36:51;3.42;;;2.00;;
19754;SDS011;10036;47.812;9.274;2023-03-31T09:39:18;4.13;;;2.00;;
19754;SDS011;10036;47.812;9.274;2023-03-31T09:41:45;2.97;;;2.13;;
19754;SDS011;10036;47.812;9.274;2023-03-31T09:44:22;4.65;;;2.20;;
19754;SDS011;10036;47.812;9.274;2023-03-31T09:46:51;6.30;;;2.50;;
19754;SDS011;10036;47.812;9.274;2023-03-31T09:49:20;8.38;;;2.35;;
19754;SDS011;10036;47.812;9.274;2023-03-31T09:51:51;5.38;;;2.00;;
19754;SDS011;10036;47.812;9.274;2023-03-31T09:54:31;4.72;;;1.90;;
19754;SDS011;10036;47.812;9.274;2023-03-31T09:57:02;3.63;;;1.65;;
19754;SDS011;10036;47.812;9.274;2023-03-31T09:59:39;4.05;;;1.92;;
19754;SDS011;10036;47.812;9.274;2023-03-31T10:02:16;4.50;;;1.80;;
19754;SDS011;10036;47.812;9.274;2023-03-31T10:05:02;5.25;;;1.90;;
19754;SDS011;10036;47.812;9.274;2023-03-31T10:07:32;5.68;;;1.75;;
19754;SDS011;10036;47.812;9.274;2023-03-31T10:10:00;3.90;;;1.90;;
19754;SDS011;10036;47.812;9.274;2023-03-31T10:12:28;4.70;;;1.85;;
19754;SDS011;10036;47.812;9.274;2023-03-31T10:15:02;3.90;;;1.77;;
19754;SDS011;10036;47.812;9.274;2023-03-31T10:17:42;4.75;;;1.50;;
19754;SDS011;10036;47.812;9.274;2023-03-31T10:20:17;2.65;;;1.73;;
19754;SDS011;10036;47.812;9.274;2023-03-31T10:22:47;3.20;;;1.67;;
19754;SDS011;10036;47.812;9.274;2023-03-31T10:25:17;4.78;;;2.05;;
19754;SDS011;10036;47.812;9.274;2023-03-31T10:27:47;3.65;;;1.80;;
19754;SDS011;10036;47.812;9.274;2023-03-31T10:30:20;5.15;;;1.70;;
19754;SDS011;10036;47.812;9.274;2023-03-31T10:32:48;2.80;;;1.65;;
19754;SDS011;10036;47.812;9.274;2023-03-31T10:35:20;2.22;;;1.45;;
19754;SDS011;10036;47.812;9.274;2023-03-31T10:37:53;2.40;;;1.50;;
19754;SDS011;10036;47.812;9.274;2023-03-31T10:40:24;2.45;;;1.48;;
19754;SDS011;10036;47.812;9.274;2023-03-31T10:42:58;5.47;;;1.77;;
19754;SDS011;10036;47.812;9.274;2023-03-31T10:45:29;4.15;;;2.10;;
19754;SDS011;10036;47.812;9.274;2023-03-31T10:48:01;5.18;;;1.70;;
19754;SDS011;10036;47.812;9.274;2023-03-31T10:50:29;5.10;;;1.73;;
19754;SDS011;10036;47.812;9.274;2023-03-31T10:53:03;3.70;;;1.40;;
19754;SDS011;10036;47.812;9.274;2023-03-31T10:55:33;3.22;;;1.40;;
19754;SDS011;10036;47.812;9.274;2023-03-31T10:58:04;3.42;;;1.80;;
19754;SDS011;10036;47.812;9.274;2023-03-31T11:00:48;3.67;;;1.65;;
19754;SDS011;10036;47.812;9.274;2023-03-31T11:03:32;3.85;;;1.52;;
19754;SDS011;10036;47.812;9.274;2023-03-31T11:06:12;3.42;;;1.60;;
19754;SDS011;10036;47.812;9.274;2023-03-31T11:08:50;4.88;;;2.03;;
19754;SDS011;10036;47.812;9.274;2023-03-31T11:11:34;4.82;;;1.55;;
19754;SDS011;10036;47.812;9.274;2023-03-31T11:14:24;5.65;;;1.58;;
19754;SDS011;10036;47.812;9.274;2023-03-31T11:17:02;4.00;;;1.60;;
19754;SDS011;10036;47.812;9.274;2023-03-31T11:19:40;4.43;;;1.55;;
19754;SDS011;10036;47.812;9.274;2023-03-31T11:22:17;4.38;;;2.10;;
19754;SDS011;10036;47.812;9.274;2023-03-31T11:24:59;3.13;;;1.65;;
19754;SDS011;10036;47.812;9.274;2023-03-31T11:27:40;3.90;;;2.00;;
19754;SDS011;10036;47.812;9.274;2023-03-31T11:30:18;3.00;;;1.67;;
19754;SDS011;10036;47.812;9.274;2023-03-31T11:32:53;3.75;;;1.95;;
19754;SDS011;10036;47.812;9.274;2023-03-31T11:35:33;6.15;;;2.13;;
19754;SDS011;10036;47.812;9.274;2023-03-31T11:38:13;6.05;;;2.20;;
19754;SDS011;10036;47.812;9.274;2023-03-31T11:40:58;2.33;;;1.60;;
19754;SDS011;10036;47.812;9.274;2023-03-31T11:43:31;5.68;;;2.15;;
19754;SDS011;10036;47.812;9.274;2023-03-31T11:46:02;5.72;;;2.03;;
19754;SDS011;10036;47.812;9.274;2023-03-31T11:48:35;5.78;;;1.88;;
19754;SDS011;10036;47.812;9.274;2023-03-31T11:51:08;4.22;;;1.90;;
19754;SDS011;10036;47.812;9.274;2023-03-31T11:53:39;5.15;;;2.15;;
19754;SDS011;10036;47.812;9.274;2023-03-31T11:56:09;8.80;;;3.15;;
19754;SDS011;10036;47.812;9.274;2023-03-31T11:58:39;4.47;;;2.17;;
19754;SDS011;10036;47.812;9.274;2023-03-31T12:01:13;4.13;;;2.20;;
19754;SDS011;10036;47.812;9.274;2023-03-31T12:03:46;70.30;;;15.52;;
19754;SDS011;10036;47.812;9.274;2023-03-31T12:06:21;28.75;;;7.75;;
19754;SDS011;10036;47.812;9.274;2023-03-31T12:08:57;5.10;;;2.33;;
19754;SDS011;10036;47.812;9.274;2023-03-31T12:11:33;68.55;;;14.63;;
19754;SDS011;10036;47.812;9.274;2023-03-31T12:14:08;8.32;;;2.70;;
19754;SDS011;10036;47.812;9.274;2023-03-31T12:16:45;4.93;;;2.00;;
19754;SDS011;10036;47.812;9.274;2023-03-31T12:19:15;6.32;;;1.85;;
19754;SDS011;10036;47.812;9.274;2023-03-31T12:21:48;3.70;;;1.80;;
19754;SDS011;10036;47.812;9.274;2023-03-31T12:24:18;6.65;;;2.08;;
19754;SDS011;10036;47.812;9.274;2023-03-31T12:26:48;5.82;;;2.00;;
19754;SDS011;10036;47.812;9.274;2023-03-31T12:29:24;7.18;;;2.25;;
19754;SDS011;10036;47.812;9.274;2023-03-31T12:31:56;4.38;;;1.85;;
19754;SDS011;10036;47.812;9.274;2023-03-31T12:34:27;5.03;;;2.00;;
19754;SDS011;10036;47.812;9.274;2023-03-31T12:36:59;5.45;;;2.05;;
19754;SDS011;10036;47.812;9.274;2023-03-31T12:39:46;7.65;;;1.77;;
19754;SDS011;10036;47.812;9.274;2023-03-31T12:45:23;7.45;;;2.00;;
19754;SDS011;10036;47.812;9.274;2023-03-31T12:48:03;6.28;;;1.70;;
19754;SDS011;10036;47.812;9.274;2023-03-31T12:50:40;5.82;;;1.70;;
19754;SDS011;10036;47.812;9.274;2023-03-31T12:53:20;10.18;;;1.85;;
19754;SDS011;10036;47.812;9.274;2023-03-31T12:55:56;5.63;;;1.65;;
19754;SDS011;10036;47.812;9.274;2023-03-31T13:01:20;4.55;;;1.40;;
19754;SDS011;10036;47.812;9.274;2023-03-31T13:04:06;2.10;;;1.20;;
19754;SDS011;10036;47.812;9.274;2023-03-31T13:06:49;4.97;;;1.48;;
19754;SDS011;10036;47.812;9.274;2023-03-31T13:09:37;10.43;;;1.13;;
19754;SDS011;10036;47.812;9.274;2023-03-31T13:12:13;0.90;;;0.90;;
19754;SDS011;10036;47.812;9.274;2023-03-31T13:14:44;0.88;;;0.80;;
19754;SDS011;10036;47.812;9.274;2023-03-31T13:17:20;1.55;;;0.90;;
19754;SDS011;10036;47.812;9.274;2023-03-31T13:19:50;1.50;;;1.00;;
19754;SDS011;10036;47.812;9.274;2023-03-31T13:22:28;2.78;;;1.10;;
19754;SDS011;10036;47.812;9.274;2023-03-31T13:28:09;1.42;;;0.90;;
19754;SDS011;10036;47.812;9.274;2023-03-31T13:30:47;3.70;;;1.20;;
19754;SDS011;10036;47.812;9.274;2023-03-31T13:33:18;1.52;;;1.10;;
19754;SDS011;10036;47.812;9.274;2023-03-31T13:35:49;1.65;;;1.20;;
19754;SDS011;10036;47.812;9.274;2023-03-31T13:38:22;2.05;;;1.10;;
19754;SDS011;10036;47.812;9.274;2023-03-31T13:41:01;2.17;;;1.13;;
19754;SDS011;10036;47.812;9.274;2023-03-31T13:49:46;1.48;;;0.80;;
19754;SDS011;10036;47.812;9.274;2023-03-31T13:52:19;2.25;;;1.08;;
19754;SDS011;10036;47.812;9.274;2023-03-31T13:55:16;1.88;;;1.05;;
19754;SDS011;10036;47.812;9.274;2023-03-31T14:01:10;1.80;;;1.02;;
19754;SDS011;10036;47.812;9.274;2023-03-31T14:03:54;1.55;;;1.05;;
19754;SDS011;10036;47.812;9.274;2023-03-31T14:06:34;3.28;;;1.27;;
19754;SDS011;10036;47.812;9.274;2023-03-31T14:09:05;3.65;;;1.25;;
19754;SDS011;10036;47.812;9.274;2023-03-31T14:11:34;5.60;;;1.30;;
19754;SDS011;10036;47.812;9.274;2023-03-31T14:14:02;3.83;;;1.63;;
19754;SDS011;10036;47.812;9.274;2023-03-31T14:16:32;6.13;;;1.23;;
19754;SDS011;10036;47.812;9.274;2023-03-31T14:22:17;3.42;;;1.20;;
19754;SDS011;10036;47.812;9.274;2023-03-31T14:24:54;2.92;;;1.25;;
19754;SDS011;10036;47.812;9.274;2023-03-31T14:27:34;2.60;;;1.00;;
19754;SDS011;10036;47.812;9.274;2023-03-31T14:30:14;3.28;;;1.10;;
19754;SDS011;10036;47.812;9.274;2023-03-31T14:32:50;2.58;;;1.05;;
19754;SDS011;10036;47.812;9.274;2023-03-31T14:35:30;1.70;;;0.90;;
19754;SDS011;10036;47.812;9.274;2023-03-31T14:38:04;2.20;;;1.00;;
19754;SDS011;10036;47.812;9.274;2023-03-31T14:40:36;1.85;;;1.10;;
19754;SDS011;10036;47.812;9.274;2023-03-31T14:43:16;1.95;;;0.93;;
19754;SDS011;10036;47.812;9.274;2023-03-31T14:45:45;2.47;;;1.38;;
19754;SDS011;10036;47.812;9.274;2023-03-31T14:48:12;2.28;;;1.00;;
19754;SDS011;10036;47.812;9.274;2023-03-31T14:50:41;2.95;;;1.27;;
19754;SDS011;10036;47.812;9.274;2023-03-31T14:53:14;1.77;;;1.27;;
19754;SDS011;10036;47.812;9.274;2023-03-31T14:55:41;5.65;;;1.67;;
19754;SDS011;10036;47.812;9.274;2023-03-31T14:58:11;6.00;;;2.90;;
19754;SDS011;10036;47.812;9.274;2023-03-31T15:00:43;2.90;;;2.03;;
19754;SDS011;10036;47.812;9.274;2023-03-31T15:03:11;5.38;;;1.88;;
19754;SDS011;10036;47.812;9.274;2023-03-31T15:05:41;3.03;;;1.80;;
19754;SDS011;10036;47.812;9.274;2023-03-31T15:08:10;5.22;;;2.10;;
19754;SDS011;10036;47.812;9.274;2023-03-31T15:10:42;3.22;;;2.00;;
19754;SDS011;10036;47.812;9.274;2023-03-31T15:13:14;7.53;;;2.20;;
19754;SDS011;10036;47.812;9.274;2023-03-31T15:15:43;6.28;;;2.03;;
19754;SDS011;10036;47.812;9.274;2023-03-31T15:18:10;1.77;;;1.13;;
19754;SDS011;10036;47.812;9.274;2023-03-31T15:20:39;2.33;;;1.40;;
19754;SDS011;10036;47.812;9.274;2023-03-31T15:23:18;4.57;;;1.48;;
19754;SDS011;10036;47.812;9.274;2023-03-31T15:25:49;1.88;;;1.40;;
19754;SDS011;10036;47.812;9.274;2023-03-31T15:28:18;2.83;;;1.30;;
19754;SDS011;10036;47.812;9.274;2023-03-31T15:30:46;1.00;;;1.00;;
19754;SDS011;10036;47.812;9.274;2023-03-31T15:33:16;0.90;;;0.90;;
19754;SDS011;10036;47.812;9.274;2023-03-31T15:35:46;1.75;;;1.00;;
19754;SDS011;10036;47.812;9.274;2023-03-31T15:38:14;1.75;;;0.90;;
19754;SDS011;10036;47.812;9.274;2023-03-31T15:40:44;1.40;;;0.80;;